Time;durP1;ratioP1;P1;durP2;ratioP2;P2;SDS_P1;SDS_P2;PMS_P1;PMS_P2;Temp;Humidity;BMP_temperature;BMP_pressure;BME280_temperature;BME280_humidity;BME280_pressure;Samples;Min_cycle;Max_cycle;Signal;HPM_P1;HPM_P2
2022/07/24 00:01:00;;;;;;;1999.90;999.90;;;;;;;25.72;52.72;95763.28;4990386;28;20026;-63
2022/07/24 00:03:26;;;;;;;1999.90;999.90;;;;;;;25.66;52.93;95762.09;5008411;28;20037;-63
2022/07/24 00:05:52;;;;;;;1999.90;999.90;;;;;;;25.67;52.93;95760.94;5007705;28;20076;-63
2022/07/24 00:08:18;;;;;;;1999.90;999.90;;;;;;;25.66;53.02;95756.66;5008491;28;20108;-64
2022/07/24 00:10:43;;;;;;;1999.90;999.90;;;;;;;25.66;52.91;95765.59;5006779;28;20101;-63
2022/07/24 00:13:08;;;;;;;1999.90;999.90;;;;;;;25.63;53.04;95771.03;4990716;28;20029;-63
2022/07/24 00:15:34;;;;;;;1999.90;999.90;;;;;;;25.51;53.16;95750.38;5007664;28;20026;-63
2022/07/24 00:17:59;;;;;;;1999.90;999.90;;;;;;;25.57;53.21;95764.41;4990820;28;20041;-63
2022/07/24 00:20:25;;;;;;;1999.90;999.90;;;;;;;25.54;53.45;95754.28;5009025;28;20474;-63
2022/07/24 00:22:50;;;;;;;1999.90;999.90;;;;;;;25.48;53.34;95753.09;5008007;28;20108;-63
2022/07/24 00:25:15;;;;;;;1999.90;999.90;;;;;;;25.44;53.50;95750.38;4989129;28;20030;-63
2022/07/24 00:27:41;;;;;;;1999.90;999.90;;;;;;;25.56;53.27;95758.19;4989533;28;20041;-63
2022/07/24 00:30:07;;;;;;;1999.90;999.90;;;;;;;25.60;53.13;95750.03;4991249;28;20104;-63
2022/07/24 00:32:32;;;;;;;1999.90;999.90;;;;;;;25.67;53.17;95756.25;4990197;28;20026;-63
2022/07/24 00:34:58;;;;;;;1999.90;999.90;;;;;;;25.66;52.92;95757.44;5007950;28;20068;-63
2022/07/24 00:37:23;;;;;;;1999.90;999.90;;;;;;;25.63;53.24;95751.97;5007684;28;20030;-63
2022/07/24 00:39:48;;;;;;;1999.90;999.90;;;;;;;25.58;52.98;95749.63;4991550;28;20034;-63
2022/07/24 00:42:14;;;;;;;1999.90;999.90;;;;;;;25.74;53.27;95768.31;5008229;28;20027;-67
2022/07/24 00:44:39;;;;;;;1999.90;999.90;;;;;;;25.72;53.46;95755.09;5012057;28;20775;-67
2022/07/24 00:47:05;;;;;;;1999.90;999.90;;;;;;;25.84;52.72;95751.25;5010469;28;20034;-68
2022/07/24 00:49:30;;;;;;;1999.90;999.90;;;;;;;25.97;52.42;95760.63;4994463;28;20030;-66
2022/07/24 00:51:55;;;;;;;1999.90;999.90;;;;;;;25.94;52.27;95750.47;5012676;28;20387;-67
2022/07/24 00:54:22;;;;;;;1999.90;999.90;;;;;;;26.11;52.80;95771.53;4992898;28;20101;-67
2022/07/24 00:56:50;;;;;;;1999.90;999.90;;;;;;;26.32;52.50;95761.78;5011948;28;20502;-67
2022/07/24 00:59:15;;;;;;;1999.90;999.90;;;;;;;26.28;51.25;95745.44;4994379;28;20107;-67
2022/07/24 01:01:42;;;;;;;1999.90;999.90;;;;;;;26.27;51.29;95737.66;5011018;28;20513;-67
2022/07/24 01:04:07;;;;;;;1999.90;999.90;;;;;;;26.16;51.16;95735.69;5011214;28;20534;-67
2022/07/24 01:06:33;;;;;;;1999.90;999.90;;;;;;;26.40;51.00;95764.09;5010990;28;20109;-67
2022/07/24 01:08:58;;;;;;;1999.90;999.90;;;;;;;26.36;50.42;95763.34;4993969;28;20029;-67
2022/07/24 01:11:25;;;;;;;1999.90;999.90;;;;;;;26.26;50.51;95755.97;4994746;28;20028;-67
2022/07/24 01:13:50;;;;;;;1999.90;999.90;;;;;;;26.22;51.02;95766.09;4992557;28;20462;-67
2022/07/24 01:16:16;;;;;;;1999.90;999.90;;;;;;;26.08;51.07;95742.31;5010550;28;20091;-67
2022/07/24 01:18:42;;;;;;;1999.90;999.90;;;;;;;26.04;50.79;95732.56;5012150;28;20033;-67
2022/07/24 01:21:08;;;;;;;1999.90;999.90;;;;;;;26.04;51.21;95743.47;5012095;28;20382;-67
2022/07/24 01:23:34;;;;;;;1999.90;999.90;;;;;;;26.06;50.91;95752.06;4992283;28;20173;-67
2022/07/24 01:26:00;;;;;;;1999.90;999.90;;;;;;;25.94;51.31;95739.56;4993627;28;20745;-67
2022/07/24 01:28:26;;;;;;;1999.90;999.90;;;;;;;26.06;51.40;95762.97;4992655;28;20025;-67
2022/07/24 01:30:52;;;;;;;1999.90;999.90;;;;;;;25.91;51.47;95743.88;5010649;28;20160;-67
2022/07/24 01:33:17;;;;;;;1999.90;999.90;;;;;;;26.01;51.38;95749.72;4993206;28;20390;-67
2022/07/24 01:35:42;;;;;;;1999.90;999.90;;;;;;;25.98;51.52;95737.63;5011068;28;20034;-67
2022/07/24 01:38:09;;;;;;;1999.90;999.90;;;;;;;26.03;51.19;95745.44;4992556;28;20029;-66
2022/07/24 01:40:35;;;;;;;1999.90;999.90;;;;;;;26.03;51.26;95750.09;5011408;28;20983;-67
2022/07/24 01:43:01;;;;;;;1999.90;999.90;;;;;;;25.83;51.21;95734.13;5009738;28;20034;-67
2022/07/24 01:45:27;;;;;;;1999.90;999.90;;;;;;;25.95;51.51;95756.72;5010226;28;20129;-68
2022/07/24 01:47:52;;;;;;;1999.90;999.90;;;;;;;25.83;51.48;95744.25;5011247;28;20515;-67
2022/07/24 01:50:18;;;;;;;1999.90;999.90;;;;;;;25.80;51.41;95740.38;5010683;28;20359;-69
2022/07/24 01:52:43;;;;;;;1999.90;999.90;;;;;;;25.82;51.55;95740.75;4993728;28;20393;-67
2022/07/24 01:55:09;;;;;;;1999.90;999.90;;;;;;;25.81;51.59;95741.91;5009951;28;20022;-68
2022/07/24 01:57:35;;;;;;;1999.90;999.90;;;;;;;25.85;51.83;95745.44;5011283;28;20036;-66
2022/07/24 02:00:01;;;;;;;1999.90;999.90;;;;;;;25.71;51.75;95737.19;5009451;28;20030;-68
2022/07/24 02:02:27;;;;;;;1999.90;999.90;;;;;;;25.54;51.96;95727.03;5010306;28;20033;-67
2022/07/24 02:04:53;;;;;;;1999.90;999.90;;;;;;;25.51;52.05;95728.59;5009823;28;20096;-67
2022/07/24 02:07:18;;;;;;;1999.90;999.90;;;;;;;25.53;52.13;95742.59;5009354;28;20470;-66
2022/07/24 02:09:44;;;;;;;1999.90;999.90;;;;;;;25.44;52.43;95738.69;5009274;28;20466;-67
2022/07/24 02:12:09;;;;;;;1999.90;999.90;;;;;;;25.33;52.65;95736.72;5010723;28;20029;-67
2022/07/24 02:14:35;;;;;;;1999.90;999.90;;;;;;;25.24;52.82;95740.97;4991844;28;20034;-69
2022/07/24 02:17:00;;;;;;;1999.90;999.90;;;;;;;25.00;53.73;95731.53;4992682;28;20508;-68
2022/07/24 02:19:26;;;;;;;1999.90;999.90;;;;;;;25.07;53.39;95737.00;5010576;28;20092;-68
2022/07/24 02:21:51;;;;;;;1999.90;999.90;;;;;;;24.94;53.70;95722.94;5010848;28;20515;-68
2022/07/24 02:24:16;;;;;;;1999.90;999.90;;;;;;;24.88;54.06;95732.63;5009779;28;20026;-69
2022/07/24 02:26:42;;;;;;;1999.90;999.90;;;;;;;24.83;54.08;95712.00;4990983;28;20117;-68
2022/07/24 02:29:07;;;;;;;1999.90;999.90;;;;;;;25.13;53.82;95724.59;5009726;28;20030;-68
2022/07/24 02:31:33;;;;;;;1999.90;999.90;;;;;;;25.26;53.31;95731.25;4992679;28;20030;-68
2022/07/24 02:33:58;;;;;;;1999.90;999.90;;;;;;;25.30;53.34;95731.28;5009684;28;20458;-68
2022/07/24 02:36:24;;;;;;;1999.90;999.90;;;;;;;25.34;53.49;95727.41;4992293;28;20033;-68
2022/07/24 02:38:49;;;;;;;1999.90;999.90;;;;;;;25.23;53.08;95726.56;4992329;28;20033;-68
2022/07/24 02:41:14;;;;;;;1999.90;999.90;;;;;;;25.06;53.58;95717.19;4992141;28;20049;-68
2022/07/24 02:43:39;;;;;;;1999.90;999.90;;;;;;;25.23;53.91;95742.13;5008894;28;20484;-68
2022/07/24 02:46:05;;;;;;;1999.90;999.90;;;;;;;25.24;53.65;95730.88;4992081;28;20497;-68
2022/07/24 02:48:30;;;;;;;1999.90;999.90;;;;;;;25.34;53.56;95746.47;5009651;28;20101;-68
2022/07/24 02:50:55;;;;;;;1999.90;999.90;;;;;;;25.08;53.72;95719.50;4992817;28;20022;-68
2022/07/24 02:53:21;;;;;;;1999.90;999.90;;;;;;;25.02;53.96;95731.91;5009347;28;20064;-68
2022/07/24 02:55:46;;;;;;;1999.90;999.90;;;;;;;24.85;54.13;95734.16;4979777;28;20069;-68
2022/07/24 02:58:11;;;;;;;1999.90;999.90;;;;;;;24.89;54.25;95750.53;5008730;28;20033;-68
2022/07/24 03:00:37;;;;;;;1999.90;999.90;;;;;;;24.65;54.65;95716.56;4991778;28;20029;-67
2022/07/24 03:03:02;;;;;;;1999.90;999.90;;;;;;;24.68;54.76;95732.16;4992256;28;20049;-67
2022/07/24 03:05:28;;;;;;;1999.90;999.90;;;;;;;24.50;54.69;95721.16;5008051;28;20026;-67
2022/07/24 03:07:53;;;;;;;1999.90;999.90;;;;;;;24.49;55.33;95724.25;4991406;28;20034;-67
2022/07/24 03:10:19;;;;;;;1999.90;999.90;;;;;;;24.54;55.31;95743.72;5009378;28;20534;-67
2022/07/24 03:12:44;;;;;;;1999.90;999.90;;;;;;;24.42;55.78;95727.72;4991307;28;20095;-67
2022/07/24 03:15:11;;;;;;;1999.90;999.90;;;;;;;24.40;55.89;95726.53;5008428;28;20034;-67
2022/07/24 03:17:36;;;;;;;1999.90;999.90;;;;;;;24.09;55.54;95685.13;4992156;28;20022;-67
2022/07/24 03:20:03;;;;;;;1999.90;999.90;;;;;;;24.24;56.14;95730.28;4991763;28;20080;-68
2022/07/24 03:22:28;;;;;;;1999.90;999.90;;;;;;;24.34;56.48;95737.72;5008346;28;20037;-67
2022/07/24 03:24:54;;;;;;;1999.90;999.90;;;;;;;24.24;56.31;95722.13;4991705;28;20022;-67
2022/07/24 03:27:19;;;;;;;1999.90;999.90;;;;;;;24.10;56.93;95724.72;5031256;22;20448;-69
2022/07/24 03:29:45;;;;;;;1999.90;999.90;;;;;;;23.94;57.16;95713.34;5020318;28;20033;-70
2022/07/24 03:32:10;;;;;;;1999.90;999.90;;;;;;;23.46;57.11;95651.63;5009693;28;20109;-70
2022/07/24 03:34:35;;;;;;;1999.90;999.90;;;;;;;24.10;56.94;95732.88;5010115;28;20432;-70
2022/07/24 03:37:01;;;;;;;1999.90;999.90;;;;;;;23.67;57.46;95686.34;5012020;28;20030;-70
2022/07/24 03:39:26;;;;;;;1999.90;999.90;;;;;;;23.79;58.15;95705.06;4991068;28;20025;-70
2022/07/24 03:41:51;;;;;;;1999.90;999.90;;;;;;;23.27;57.78;95628.16;4991423;28;20020;-70
2022/07/24 03:44:17;;;;;;;1999.90;999.90;;;;;;;23.92;58.09;95721.88;5008378;28;20502;-70
2022/07/24 03:46:42;;;;;;;1999.90;999.90;;;;;;;23.60;57.88;95675.41;5008192;28;20037;-70
2022/07/24 03:49:07;;;;;;;1999.90;999.90;;;;;;;23.76;57.72;95708.56;5008895;28;20478;-69
2022/07/24 03:51:34;;;;;;;1999.90;999.90;;;;;;;23.70;58.00;95704.63;5009053;28;20026;-70
2022/07/24 03:54:01;;;;;;;1999.90;999.90;;;;;;;23.84;58.50;95753.63;4990722;28;20029;-69
2022/07/24 03:56:27;;;;;;;1999.90;999.90;;;;;;;23.84;58.36;95740.03;4991283;28;20026;-70
2022/07/24 03:58:53;;;;;;;1999.90;999.90;;;;;;;23.86;58.51;95745.91;5007974;28;20025;-70
2022/07/24 04:01:18;;;;;;;1999.90;999.90;;;;;;;23.86;58.62;95753.28;5008333;28;20169;-70
2022/07/24 04:03:44;;;;;;;1999.90;999.90;;;;;;;23.60;58.47;95703.34;5008398;28;20039;-69
2022/07/24 04:06:09;;;;;;;1999.90;999.90;;;;;;;23.60;59.54;95751.44;4980267;28;20034;-70
2022/07/24 04:08:34;;;;;;;1999.90;999.90;;;;;;;23.58;59.63;95759.94;5009502;28;20030;-70
2022/07/24 04:11:00;;;;;;;1999.90;999.90;;;;;;;23.45;59.96;95755.16;5008509;28;20581;-70
2022/07/24 04:13:27;;;;;;;1999.90;999.90;;;;;;;23.55;59.97;95758.00;5007526;28;20497;-70
2022/07/24 04:15:53;;;;;;;1999.90;999.90;;;;;;;23.15;60.20;95714.50;5003318;28;20034;-71
2022/07/24 04:18:19;;;;;;;1999.90;999.90;;;;;;;23.52;60.54;95771.53;5010797;28;20030;-69
2022/07/24 04:20:45;;;;;;;1999.90;999.90;;;;;;;23.62;60.16;95760.00;4995547;28;20030;-70
2022/07/24 04:23:10;;;;;;;1999.90;999.90;;;;;;;23.51;59.77;95734.66;5011999;28;20033;-72
2022/07/24 04:25:35;;;;;;;1999.90;999.90;;;;;;;23.26;60.09;95727.03;4994881;28;20664;-69
2022/07/24 04:28:01;;;;;;;1999.90;999.90;;;;;;;23.38;60.32;95749.66;5012238;28;20029;-69
2022/07/24 04:30:27;;;;;;;1999.90;999.90;;;;;;;23.47;59.97;95740.06;5011714;28;20088;-69
2022/07/24 04:32:53;;;;;;;1999.90;999.90;;;;;;;23.69;59.98;95784.53;4993793;28;20026;-71
2022/07/24 04:35:19;;;;;;;1999.90;999.90;;;;;;;23.65;59.98;95782.91;4993008;28;20078;-69
2022/07/24 04:37:45;;;;;;;1999.90;999.90;;;;;;;23.45;60.33;95753.22;5012439;28;20026;-68
2022/07/24 04:40:11;;;;;;;1999.90;999.90;;;;;;;23.92;59.63;95764.56;5012552;28;20021;-71
2022/07/24 04:42:37;;;;;;;1999.90;999.90;;;;;;;24.41;58.54;95777.81;5007694;28;20027;-71
2022/07/24 04:45:02;;;;;;;1999.90;999.90;;;;;;;24.48;57.87;95733.59;4993094;28;20077;-71
2022/07/24 04:47:28;;;;;;;1999.90;999.90;;;;;;;24.43;57.38;95693.16;5011331;28;20037;-69
2022/07/24 04:49:53;;;;;;;1999.90;999.90;;;;;;;24.94;56.72;95731.09;5011925;28;20030;-69
2022/07/24 04:52:18;;;;;;;1999.90;999.90;;;;;;;25.36;55.85;95743.34;5011287;28;20441;-70
2022/07/24 04:54:44;;;;;;;1999.90;999.90;;;;;;;25.55;55.00;95732.13;4994066;28;20037;-71
2022/07/24 04:57:09;;;;;;;1999.90;999.90;;;;;;;25.89;54.35;95750.88;5010464;28;20065;-71
2022/07/24 04:59:34;;;;;;;1999.90;999.90;;;;;;;25.99;53.66;95701.03;4994098;28;20026;-71
2022/07/24 05:02:00;;;;;;;1999.90;999.90;;;;;;;26.60;52.41;95763.72;4993976;28;20072;-71
2022/07/24 05:04:25;;;;;;;1999.90;999.90;;;;;;;26.71;52.13;95780.84;5011526;28;20057;-70
2022/07/24 05:06:50;;;;;;;1999.90;999.90;;;;;;;26.28;52.51;95767.25;5012415;28;20030;-71
2022/07/24 05:09:16;;;;;;;1999.90;999.90;;;;;;;25.86;53.10;95736.09;5012461;28;20648;-71
2022/07/24 05:11:41;;;;;;;1999.90;999.90;;;;;;;24.85;56.20;95780.44;5010179;28;20084;-72
2022/07/24 05:14:06;;;;;;;1999.90;999.90;;;;;;;24.34;58.40;95799.47;4994178;28;20026;-70
2022/07/24 05:16:32;;;;;;;1999.90;999.90;;;;;;;24.24;57.35;95708.53;5010086;28;20053;-71
2022/07/24 05:18:57;;;;;;;1999.90;999.90;;;;;;;24.99;56.87;95778.94;5011338;28;20026;-71
2022/07/24 05:21:23;;;;;;;1999.90;999.90;;;;;;;25.22;56.05;95771.28;5011169;28;20114;-70
2022/07/24 05:23:48;;;;;;;1999.90;999.90;;;;;;;25.29;56.03;95809.47;4994077;28;20049;-71
2022/07/24 05:26:13;;;;;;;1999.90;999.90;;;;;;;25.29;55.81;95811.41;5011078;28;20026;-70
2022/07/24 05:28:39;;;;;;;1999.90;999.90;;;;;;;25.06;55.54;95711.75;5011265;28;20505;-73
2022/07/24 05:31:04;;;;;;;1999.90;999.90;;;;;;;25.70;54.75;95745.78;4992997;28;20042;-70
2022/07/24 05:33:30;;;;;;;1999.90;999.90;;;;;;;26.25;53.92;95783.59;5010447;28;20074;-70
2022/07/24 05:35:56;;;;;;;1999.90;999.90;;;;;;;26.42;53.06;95747.41;5010854;28;20041;-70
2022/07/24 05:38:21;;;;;;;1999.90;999.90;;;;;;;26.45;51.73;95803.88;5010554;28;20030;-70
2022/07/24 05:40:46;;;;;;;1999.90;999.90;;;;;;;25.96;51.61;95720.91;5010273;28;20065;-70
2022/07/24 05:43:12;;;;;;;1999.90;999.90;;;;;;;26.36;51.73;95748.91;5011425;28;20029;-70
2022/07/24 05:45:37;;;;;;;1999.90;999.90;;;;;;;26.49;51.51;95743.88;5009916;28;20363;-70
2022/07/24 05:48:03;;;;;;;1999.90;999.90;;;;;;;26.77;51.03;95773.84;5011429;28;20037;-71
2022/07/24 05:50:28;;;;;;;1999.90;999.90;;;;;;;26.40;50.98;95766.06;5010478;28;20132;-72
2022/07/24 05:52:53;;;;;;;1999.90;999.90;;;;;;;25.98;51.97;95770.34;5009130;28;20052;-68
2022/07/24 05:55:18;;;;;;;1999.90;999.90;;;;;;;25.75;52.62;95757.09;5009462;28;20083;-67
2022/07/24 05:57:45;;;;;;;1999.90;999.90;;;;;;;25.18;53.40;95729.66;5011514;28;20471;-70
2022/07/24 06:00:12;;;;;;;1999.90;999.90;;;;;;;25.45;53.82;95781.91;5008393;28;20030;-67
2022/07/24 06:02:39;;;;;;;1999.90;999.90;;;;;;;24.52;53.81;95641.94;5007731;28;20100;-68
2022/07/24 06:05:04;;;;;;;1999.90;999.90;;;;;;;24.37;53.11;95559.50;5010103;28;20030;-64
2022/07/24 06:07:30;;;;;;;1999.90;999.90;;;;;;;26.27;53.02;95797.63;5009521;28;20030;-71
2022/07/24 06:09:55;;;;;;;1999.90;999.90;;;;;;;25.15;52.55;95597.81;5010466;28;20045;-65
2022/07/24 06:12:20;;;;;;;1999.90;999.90;;;;;;;26.58;51.43;95785.19;5010391;28;20021;-65
2022/07/24 06:14:46;;;;;;;1999.90;999.90;;;;;;;25.92;51.63;95706.50;5010307;28;20026;-66
2022/07/24 06:17:11;;;;;;;1999.90;999.90;;;;;;;26.27;51.68;95752.06;5001776;28;20037;-66
2022/07/24 06:19:37;;;;;;;1999.90;999.90;;;;;;;26.69;50.88;95762.16;5010281;28;20030;-65
2022/07/24 06:22:02;;;;;;;1999.90;999.90;;;;;;;26.89;50.40;95767.19;5003271;28;20049;-65
2022/07/24 06:24:27;;;;;;;1999.90;999.90;;;;;;;26.97;49.84;95757.78;5009119;28;20113;-66
2022/07/24 06:26:53;;;;;;;1999.90;999.90;;;;;;;26.32;51.26;95775.44;5009827;28;20044;-66
2022/07/24 06:29:18;;;;;;;1999.90;999.90;;;;;;;26.03;50.19;95706.50;5008896;28;20474;-66
2022/07/24 06:31:43;;;;;;;1999.90;999.90;;;;;;;26.17;50.01;95714.66;5009508;28;20550;-68
2022/07/24 06:34:09;;;;;;;1999.90;999.90;;;;;;;27.14;49.42;95781.56;4992288;28;20497;-74
2022/07/24 06:36:34;;;;;;;1999.90;999.90;;;;;;;27.26;48.49;95766.69;5009598;28;20034;-70
2022/07/24 06:38:59;;;;;;;1999.90;999.90;;;;;;;27.36;47.93;95746.75;5007518;28;20505;-71
2022/07/24 06:41:25;;;;;;;1999.90;999.90;;;;;;;27.65;46.69;95771.97;5008464;28;20104;-70
2022/07/24 06:43:50;;;;;;;1999.90;999.90;;;;;;;27.79;46.35;95759.41;5009246;28;20032;-70
2022/07/24 06:46:15;;;;;;;1999.90;999.90;;;;;;;27.83;45.34;95771.88;5008034;28;20590;-71
2022/07/24 06:48:41;;;;;;;1999.90;999.90;;;;;;;27.97;45.26;95760.84;4992230;28;20061;-70
2022/07/24 06:51:06;;;;;;;1999.90;999.90;;;;;;;28.19;44.28;95772.41;4992156;28;20057;-70
2022/07/24 06:53:31;;;;;;;1999.90;999.90;;;;;;;28.23;44.42;95754.00;5008887;28;20030;-70
2022/07/24 06:55:57;;;;;;;1999.90;999.90;;;;;;;28.37;43.23;95761.34;4992278;28;20083;-71
2022/07/24 06:58:22;;;;;;;1999.90;999.90;;;;;;;28.47;43.01;95757.75;5009811;28;20549;-70
2022/07/24 07:00:48;;;;;;;1999.90;999.90;;;;;;;28.56;43.13;95762.75;5006740;28;20022;-71
2022/07/24 07:03:15;;;;;;;1999.90;999.90;;;;;;;28.19;44.47;95775.13;5008578;28;20061;-71
2022/07/24 07:05:41;;;;;;;1999.90;999.90;;;;;;;28.30;44.82;95783.25;5009449;28;20052;-70
2022/07/24 07:08:06;;;;;;;1999.90;999.90;;;;;;;28.24;43.34;95750.09;4990708;28;20026;-71
2022/07/24 07:10:31;;;;;;;1999.90;999.90;;;;;;;27.93;44.18;95756.59;4988664;28;20117;-72
2022/07/24 07:12:57;;;;;;;1999.90;999.90;;;;;;;28.22;44.00;95765.38;4977072;28;20282;-72
2022/07/24 07:15:23;;;;;;;1999.90;999.90;;;;;;;28.55;44.21;95774.88;5004074;28;20132;-71
2022/07/24 07:17:48;;;;;;;1999.90;999.90;;;;;;;28.71;43.03;95768.84;5010116;28;20154;-71
2022/07/24 07:20:14;;;;;;;1999.90;999.90;;;;;;;28.72;42.61;95745.78;4991902;28;20034;-71
2022/07/24 07:22:41;;;;;;;1999.90;999.90;;;;;;;29.06;42.27;95764.22;4989274;28;20022;-71
2022/07/24 07:25:07;;;;;;;1999.90;999.90;;;;;;;29.33;42.21;95783.44;5009995;28;20049;-71
2022/07/24 07:27:32;;;;;;;1999.90;999.90;;;;;;;29.46;41.96;95785.25;4991360;28;20502;-71
2022/07/24 07:29:58;;;;;;;1999.90;999.90;;;;;;;29.25;40.79;95764.38;5009163;28;20026;-71
2022/07/24 07:32:23;;;;;;;1999.90;999.90;;;;;;;29.49;41.08;95783.66;4990246;28;20497;-71
2022/07/24 07:34:48;;;;;;;1999.90;999.90;;;;;;;29.50;40.26;95772.28;5008752;28;20490;-71
2022/07/24 07:37:14;;;;;;;1999.90;999.90;;;;;;;29.31;40.02;95737.28;5008947;28;20490;-70
2022/07/24 07:39:39;;;;;;;1999.90;999.90;;;;;;;29.65;39.82;95772.13;5007718;28;20026;-70
2022/07/24 07:42:04;;;;;;;1999.90;999.90;;;;;;;29.84;39.19;95787.13;4992066;28;20122;-70
2022/07/24 07:44:30;;;;;;;1999.90;999.90;;;;;;;29.82;39.15;95782.06;5008772;28;20386;-70
2022/07/24 07:46:55;;;;;;;1999.90;999.90;;;;;;;29.66;39.31;95749.00;4991233;28;20068;-71
2022/07/24 07:49:21;;;;;;;1999.90;999.90;;;;;;;29.65;38.08;95767.41;5007867;28;20037;-71
2022/07/24 07:51:51;;;;;;;1999.90;999.90;;;;;;;29.27;38.48;95753.75;4991585;28;20037;-72
2022/07/24 07:54:17;;;;;;;1999.90;999.90;;;;;;;29.49;38.52;95754.28;5014817;28;20026;-70
2022/07/24 07:56:42;;;;;;;1999.90;999.90;;;;;;;29.46;37.74;95771.53;5015029;28;20030;-71
2022/07/24 07:59:07;;;;;;;1999.90;999.90;;;;;;;29.27;37.71;95731.06;4997706;28;20042;-71
2022/07/24 08:01:33;;;;;;;1999.90;999.90;;;;;;;29.29;37.82;95747.13;5013765;28;20045;-70
2022/07/24 08:03:58;;;;;;;1999.90;999.90;;;;;;;29.09;38.29;95761.44;5014005;28;20033;-71
2022/07/24 08:06:24;;;;;;;1999.90;999.90;;;;;;;29.24;38.50;95776.53;5014505;28;20053;-70
2022/07/24 08:08:49;;;;;;;1999.90;999.90;;;;;;;29.14;38.91;95768.44;4998315;28;20034;-70
2022/07/24 08:11:14;;;;;;;1999.90;999.90;;;;;;;29.20;39.05;95767.56;5015313;28;20041;-71
2022/07/24 08:13:40;;;;;;;1999.90;999.90;;;;;;;28.86;38.78;95742.88;5013685;28;20026;-71
2022/07/24 08:16:05;;;;;;;1999.90;999.90;;;;;;;29.43;37.93;95775.13;4997847;28;20052;-70
2022/07/24 08:18:31;;;;;;;1999.90;999.90;;;;;;;29.60;37.77;95783.56;4997651;28;20042;-70
2022/07/24 08:20:56;;;;;;;1999.90;999.90;;;;;;;29.36;37.86;95766.19;5015131;28;20037;-72
2022/07/24 08:23:21;;;;;;;1999.90;999.90;;;;;;;29.63;37.67;95778.00;4996885;28;20402;-72
2022/07/24 08:25:47;;;;;;;1999.90;999.90;;;;;;;29.69;37.75;95778.34;5016128;28;20387;-71
2022/07/24 08:28:12;;;;;;;1999.90;999.90;;;;;;;29.71;37.30;95754.78;4993547;28;20658;-72
2022/07/24 08:30:37;;;;;;;1999.90;999.90;;;;;;;29.06;37.93;95780.66;4982287;28;20021;-71
2022/07/24 08:33:03;;;;;;;1999.90;999.90;;;;;;;28.07;40.07;95772.13;4997295;28;20034;-71
2022/07/24 08:35:28;;;;;;;1999.90;999.90;;;;;;;29.06;38.57;95745.81;5013781;28;20034;-73
2022/07/24 08:37:54;;;;;;;1999.90;999.90;;;;;;;29.33;37.29;95710.28;4998144;28;20048;-72
2022/07/24 08:40:21;;;;;;;1999.90;999.90;;;;;;;29.62;36.17;95779.19;5013931;28;20591;-73
2022/07/24 08:42:47;;;;;;;1999.90;999.90;;;;;;;29.39;36.74;95757.94;4996954;28;20083;-72
2022/07/24 08:45:12;;;;;;;1999.90;999.90;;;;;;;29.71;36.02;95763.03;5014566;28;20026;-72
2022/07/24 08:47:41;;;;;;;1999.90;999.90;;;;;;;28.89;37.31;95763.97;5013972;28;20076;-71
2022/07/24 08:50:08;;;;;;;1999.90;999.90;;;;;;;29.08;36.75;95768.09;4996854;28;20037;-72
2022/07/24 08:52:35;;;;;;;1999.90;999.90;;;;;;;29.34;36.85;95776.81;5014983;28;20052;-72
2022/07/24 08:55:00;;;;;;;1999.90;999.90;;;;;;;29.57;36.15;95763.22;4997966;28;20053;-72
2022/07/24 08:57:26;;;;;;;1999.90;999.90;;;;;;;29.71;36.04;95765.00;4997013;28;20050;-71
2022/07/24 08:59:51;;;;;;;1999.90;999.90;;;;;;;30.18;35.61;95770.59;5014715;28;20590;-72
2022/07/24 09:02:17;;;;;;;1999.90;999.90;;;;;;;30.31;35.00;95751.56;5009903;28;20467;-72
2022/07/24 09:04:46;;;;;;;1999.90;999.90;;;;;;;29.98;35.37;95770.47;5016023;28;20022;-72
2022/07/24 09:07:24;;;;;;;1999.90;999.90;;;;;;;30.47;35.20;95766.19;5025144;28;20672;-73
2022/07/24 09:10:06;;;;;;;1999.90;999.90;;;;;;;29.79;35.92;95771.94;5028556;28;20037;-73
2022/07/24 09:12:38;;;;;;;1999.90;999.90;;;;;;;29.48;37.27;95780.16;5002020;28;20486;-72
2022/07/24 09:15:26;;;;;;;1999.90;999.90;;;;;;;30.49;35.37;95772.03;5011540;28;20081;-72
2022/07/24 09:17:56;;;;;;;1999.90;999.90;;;;;;;30.39;34.69;95761.22;4993812;28;20124;-73
2022/07/24 09:20:23;;;;;;;1999.90;999.90;;;;;;;30.08;35.02;95763.25;4992474;28;20080;-72
2022/07/24 09:22:49;;;;;;;1999.90;999.90;;;;;;;30.96;34.34;95771.22;5011572;28;20548;-73
2022/07/24 09:25:16;;;;;;;1999.90;999.90;;;;;;;31.20;33.27;95755.44;4992896;28;20030;-66
2022/07/24 09:27:46;;;;;;;1999.90;999.90;;;;;;;30.94;33.77;95765.38;4975310;28;20026;-67
2022/07/24 09:30:29;;;;;;;1999.90;999.90;;;;;;;29.48;36.07;95762.91;5028548;22;20068;-64
2022/07/24 09:33:04;;;;;;;1999.90;999.90;;;;;;;29.12;36.94;95760.59;5019587;28;20036;-65
2022/07/24 09:35:33;;;;;;;1999.90;999.90;;;;;;;29.92;35.17;95756.44;5013544;28;20088;-64
2022/07/24 09:38:02;;;;;;;1999.90;999.90;;;;;;;30.10;34.79;95758.13;5010925;28;20041;-64
2022/07/24 09:40:32;;;;;;;1999.90;999.90;;;;;;;30.06;34.75;95760.16;5006609;28;20022;-65
2022/07/24 09:43:28;;;;;;;1999.90;999.90;;;;;;;30.33;33.78;95708.00;5008198;28;20032;-66
2022/07/24 09:45:59;;;;;;;1999.90;999.90;;;;;;;30.88;33.73;95758.84;5011077;28;20040;-65
2022/07/24 09:48:27;;;;;;;;;;;;;;;31.02;33.75;95753.84;5012221;28;20030;-65
2022/07/24 09:50:54;;;;;;;1999.90;999.90;;;;;;;30.90;33.44;95761.91;5010913;28;19918;-65
2022/07/24 09:53:22;;;;;;;1999.90;999.90;;;;;;;29.97;34.22;95708.56;5011199;28;20096;-65
2022/07/24 09:56:10;;;;;;;1999.90;999.90;;;;;;;29.70;34.58;95766.19;4993011;28;20501;-66
2022/07/24 09:58:39;;;;;;;1999.90;999.90;;;;;;;29.21;36.07;95747.19;4992020;28;20030;-65
2022/07/24 10:01:06;;;;;;;1999.90;999.90;;;;;;;29.43;35.69;95758.69;4993263;28;20505;-65
2022/07/24 10:03:34;;;;;;;1999.90;999.90;;;;;;;28.88;35.67;95693.19;5010314;28;20025;-64
2022/07/24 10:06:02;;;;;;;1999.90;999.90;;;;;;;29.89;35.01;95748.25;5009875;28;20033;-65
2022/07/24 10:08:29;;;;;;;1999.90;999.90;;;;;;;30.56;34.56;95740.94;5010508;28;20117;-64
2022/07/24 10:10:55;;;;;;;1999.90;999.90;;;;;;;30.72;33.12;95730.09;5011354;28;20040;-63
2022/07/24 10:13:20;;;;;;;1999.90;999.90;;;;;;;30.95;33.27;95736.72;5010925;28;20022;-62
2022/07/24 10:16:15;;;;;;;1999.90;999.90;;;;;;;31.79;31.77;95741.66;5009952;28;20101;-64
2022/07/24 10:18:47;;;;;;;1999.90;999.90;;;;;;;30.99;32.30;95743.69;5000780;28;20041;-65
2022/07/24 10:21:43;;;;;;;1999.90;999.90;;;;;;;31.60;31.47;95742.47;4991257;28;20112;-65
2022/07/24 10:24:34;;;;;;;1999.90;999.90;;;;;;;31.54;31.26;95736.69;5007782;28;20497;-65
2022/07/24 10:27:04;;;;;;;1999.90;999.90;;;;;;;30.77;32.36;95740.56;4991587;28;20030;-65
2022/07/24 10:29:33;;;;;;;1999.90;999.90;;;;;;;31.03;32.16;95713.41;5010598;28;20490;-65
2022/07/24 10:31:59;;;;;;;1999.90;999.90;;;;;;;31.91;31.38;95734.72;5009888;28;20034;-64
2022/07/24 10:35:05;;;;;;;1999.90;999.90;;;;;;;32.24;30.51;95729.97;4999002;28;20029;-65
2022/07/24 10:37:37;;;;;;;1999.90;999.90;;;;;;;32.28;29.88;95721.63;4971886;28;20128;-64
2022/07/24 10:40:11;;;;;;;1999.90;999.90;;;;;;;31.47;31.24;95733.31;4992556;28;20030;-65
2022/07/24 10:43:04;;;;;;;1999.90;999.90;;;;;;;30.72;32.04;95726.56;5010322;28;20105;-67
2022/07/24 10:45:30;;;;;;;1999.90;999.90;;;;;;;31.38;31.78;95714.66;5009744;28;20033;-65
2022/07/24 10:47:57;;;;;;;1999.90;999.90;;;;;;;30.94;32.81;95724.94;5010452;28;20032;-66
2022/07/24 10:50:22;;;;;;;1999.90;999.90;;;;;;;31.42;31.70;95714.56;5009841;28;20037;-69
2022/07/24 10:52:48;;;;;;;1999.90;999.90;;;;;;;31.52;30.70;95722.59;4991317;28;20127;-66